FRS28 EDVU-EDLS
Flight info
| Callsign | FRS28 |
|---|---|
| Flight time | 0h 55m |
| Altitude | 2000 |
| Route | DIRECT |
| Aircraft | COL4/L-V/N |
Departure
| Time | 2026-05-07 15:13 |
|---|---|
| Airport | Uelzen Airfield (EDVU) |
Arrival
| Time | 2026-05-07 16:08 |
|---|---|
| Airport | Stadtlohn-Vreden Airfield (EDLS) |
| Time | Latitude | Longitude | Altitude | Speed | Heading |
|---|---|---|---|---|---|
| 2026-05-07 15:08 | 52.98310 | 10.46767 | 243 ft | 0 kts | 353° |
| 2026-05-07 15:09 | 52.98322 | 10.46774 | 245 ft | 7 kts | 10° |
| 2026-05-07 15:09 | 52.98377 | 10.46745 | 244 ft | 11 kts | 289° |
| 2026-05-07 15:10 | 52.98377 | 10.46644 | 247 ft | 0 kts | 256° |
| 2026-05-07 15:10 | 52.98377 | 10.46643 | 247 ft | 2 kts | 258° |
| 2026-05-07 15:10 | 52.98373 | 10.46474 | 254 ft | 23 kts | 267° |
| 2026-05-07 15:11 | 52.98363 | 10.46199 | 261 ft | 23 kts | 264° |
| 2026-05-07 15:11 | 52.98363 | 10.46005 | 266 ft | 5 kts | 225° |
| 2026-05-07 15:11 | 52.98358 | 10.46011 | 266 ft | 0 kts | 91° |
| 2026-05-07 15:11 | 52.98365 | 10.46290 | 261 ft | 54 kts | 87° |
| 2026-05-07 15:12 | 52.98407 | 10.47081 | 385 ft | 73 kts | 90° |
| 2026-05-07 15:12 | 52.98520 | 10.47944 | 581 ft | 81 kts | 53° |
| 2026-05-07 15:12 | 52.99046 | 10.48065 | 816 ft | 96 kts | 326° |
| 2026-05-07 15:12 | 52.99437 | 10.46950 | 846 ft | 120 kts | 284° |
| 2026-05-07 15:13 | 52.99555 | 10.45505 | 1005 ft | 135 kts | 281° |
| 2026-05-07 15:13 | 52.99714 | 10.43870 | 1191 ft | 152 kts | 280° |
| 2026-05-07 15:13 | 52.99804 | 10.42048 | 1380 ft | 164 kts | 270° |
| 2026-05-07 15:13 | 52.99805 | 10.40133 | 1543 ft | 170 kts | 272° |
| 2026-05-07 15:14 | 52.99831 | 10.38136 | 1709 ft | 174 kts | 271° |
| 2026-05-07 15:14 | 52.99840 | 10.36155 | 1863 ft | 173 kts | 272° |
| 2026-05-07 15:14 | 52.99857 | 10.34132 | 1993 ft | 177 kts | 272° |
| 2026-05-07 15:14 | 52.99873 | 10.32047 | 2005 ft | 183 kts | 272° |
| 2026-05-07 15:15 | 52.99886 | 10.29950 | 2015 ft | 181 kts | 270° |
| 2026-05-07 15:15 | 52.99901 | 10.27854 | 2006 ft | 180 kts | 273° |
| 2026-05-07 15:15 | 52.99913 | 10.25824 | 1998 ft | 174 kts | 270° |
| 2026-05-07 15:15 | 52.99916 | 10.23824 | 1997 ft | 170 kts | 270° |
| 2026-05-07 15:16 | 52.99916 | 10.21875 | 2001 ft | 169 kts | 270° |
| 2026-05-07 15:16 | 52.99919 | 10.19912 | 2000 ft | 169 kts | 272° |
| 2026-05-07 15:16 | 52.99923 | 10.17973 | 1997 ft | 169 kts | 271° |
| 2026-05-07 15:16 | 52.99927 | 10.16011 | 2002 ft | 170 kts | 271° |
| 2026-05-07 15:17 | 52.99934 | 10.14038 | 2002 ft | 173 kts | 271° |
| 2026-05-07 15:17 | 52.99942 | 10.12033 | 2015 ft | 172 kts | 271° |
| 2026-05-07 15:17 | 52.99948 | 10.10041 | 2007 ft | 173 kts | 271° |
| 2026-05-07 15:17 | 52.99934 | 10.08024 | 1997 ft | 174 kts | 271° |
| 2026-05-07 15:18 | 52.99947 | 10.06039 | 2003 ft | 172 kts | 272° |
| 2026-05-07 15:18 | 52.99956 | 10.04050 | 1997 ft | 171 kts | 271° |
| 2026-05-07 15:18 | 52.99960 | 10.02083 | 1997 ft | 168 kts | 271° |
| 2026-05-07 15:18 | 52.99965 | 10.00179 | 1994 ft | 166 kts | 271° |
| 2026-05-07 15:19 | 52.99971 | 9.98264 | 2002 ft | 166 kts | 271° |
| 2026-05-07 15:19 | 52.99791 | 9.96387 | 1992 ft | 167 kts | 253° |
| 2026-05-07 15:19 | 52.99462 | 9.94541 | 2001 ft | 166 kts | 254° |
| 2026-05-07 15:19 | 52.99141 | 9.92683 | 2008 ft | 166 kts | 253° |
| 2026-05-07 15:20 | 52.98826 | 9.90853 | 2001 ft | 166 kts | 253° |
| 2026-05-07 15:20 | 52.98501 | 9.88986 | 2008 ft | 168 kts | 253° |
| 2026-05-07 15:20 | 52.98181 | 9.87128 | 2005 ft | 168 kts | 253° |
| 2026-05-07 15:20 | 52.97858 | 9.85247 | 2010 ft | 170 kts | 254° |
| 2026-05-07 15:21 | 52.97532 | 9.83384 | 2008 ft | 169 kts | 253° |
| 2026-05-07 15:21 | 52.97212 | 9.81504 | 2007 ft | 169 kts | 253° |
| 2026-05-07 15:21 | 52.96889 | 9.79628 | 2010 ft | 169 kts | 254° |
| 2026-05-07 15:21 | 52.96566 | 9.77752 | 2009 ft | 169 kts | 253° |
| 2026-05-07 15:22 | 52.96248 | 9.75877 | 2006 ft | 171 kts | 254° |
| 2026-05-07 15:22 | 52.95921 | 9.73972 | 2005 ft | 170 kts | 254° |
| 2026-05-07 15:22 | 52.95604 | 9.72106 | 1996 ft | 167 kts | 253° |
| 2026-05-07 15:22 | 52.95289 | 9.70251 | 2003 ft | 167 kts | 253° |
| 2026-05-07 15:23 | 52.94963 | 9.68414 | 1993 ft | 167 kts | 253° |
| 2026-05-07 15:23 | 52.94639 | 9.66560 | 1994 ft | 166 kts | 253° |
| 2026-05-07 15:23 | 52.94323 | 9.64737 | 1992 ft | 166 kts | 253° |
| 2026-05-07 15:23 | 52.93999 | 9.62887 | 1993 ft | 167 kts | 253° |
| 2026-05-07 15:24 | 52.93736 | 9.61358 | 1996 ft | 167 kts | 253° |
| 2026-05-07 15:24 | 52.93414 | 9.59513 | 1989 ft | 167 kts | 253° |
| 2026-05-07 15:24 | 52.93094 | 9.57687 | 1994 ft | 165 kts | 253° |
| 2026-05-07 15:24 | 52.92763 | 9.55847 | 1992 ft | 166 kts | 252° |
| 2026-05-07 15:25 | 52.92441 | 9.54009 | 1996 ft | 166 kts | 254° |
| 2026-05-07 15:25 | 52.92130 | 9.52180 | 1994 ft | 166 kts | 253° |
| 2026-05-07 15:25 | 52.91801 | 9.50325 | 1996 ft | 168 kts | 253° |
| 2026-05-07 15:25 | 52.91476 | 9.48476 | 2005 ft | 168 kts | 254° |
| 2026-05-07 15:26 | 52.91150 | 9.46609 | 2000 ft | 171 kts | 253° |
| 2026-05-07 15:26 | 52.90818 | 9.44708 | 2000 ft | 171 kts | 253° |
| 2026-05-07 15:26 | 52.90489 | 9.42830 | 2001 ft | 171 kts | 253° |
| 2026-05-07 15:26 | 52.90145 | 9.40933 | 2000 ft | 172 kts | 253° |
| 2026-05-07 15:27 | 52.89808 | 9.39028 | 1997 ft | 170 kts | 253° |
| 2026-05-07 15:27 | 52.89477 | 9.37163 | 2003 ft | 171 kts | 253° |
| 2026-05-07 15:27 | 52.89138 | 9.35258 | 1998 ft | 172 kts | 253° |
| 2026-05-07 15:27 | 52.88808 | 9.33364 | 1998 ft | 173 kts | 253° |
| 2026-05-07 15:28 | 52.88467 | 9.31449 | 1999 ft | 172 kts | 252° |
| 2026-05-07 15:28 | 52.88124 | 9.29536 | 2001 ft | 172 kts | 252° |
| 2026-05-07 15:28 | 52.87788 | 9.27654 | 2005 ft | 172 kts | 253° |
| 2026-05-07 15:28 | 52.87444 | 9.25737 | 2001 ft | 173 kts | 253° |
| 2026-05-07 15:29 | 52.87109 | 9.23828 | 2005 ft | 173 kts | 253° |
| 2026-05-07 15:29 | 52.86765 | 9.21901 | 2009 ft | 174 kts | 252° |
| 2026-05-07 15:29 | 52.86429 | 9.20001 | 2002 ft | 173 kts | 253° |
| 2026-05-07 15:29 | 52.86086 | 9.18089 | 1996 ft | 172 kts | 253° |
| 2026-05-07 15:30 | 52.85749 | 9.16214 | 1998 ft | 172 kts | 253° |
| 2026-05-07 15:30 | 52.85415 | 9.14322 | 1997 ft | 170 kts | 253° |
| 2026-05-07 15:30 | 52.85082 | 9.12431 | 1998 ft | 170 kts | 253° |
| 2026-05-07 15:30 | 52.84749 | 9.10572 | 1996 ft | 170 kts | 252° |
| 2026-05-07 15:31 | 52.84415 | 9.08691 | 2000 ft | 170 kts | 252° |
| 2026-05-07 15:31 | 52.84078 | 9.06809 | 1999 ft | 170 kts | 252° |
| 2026-05-07 15:31 | 52.83743 | 9.04942 | 2004 ft | 172 kts | 252° |
| 2026-05-07 15:31 | 52.83402 | 9.03036 | 2004 ft | 172 kts | 252° |
| 2026-05-07 15:32 | 52.83069 | 9.01148 | 2006 ft | 172 kts | 253° |
| 2026-05-07 15:32 | 52.82729 | 8.99241 | 2005 ft | 173 kts | 253° |
| 2026-05-07 15:32 | 52.82387 | 8.97347 | 2001 ft | 173 kts | 252° |
| 2026-05-07 15:32 | 52.82053 | 8.95454 | 2006 ft | 173 kts | 253° |
| 2026-05-07 15:33 | 52.81706 | 8.93551 | 2006 ft | 172 kts | 252° |
| 2026-05-07 15:33 | 52.81364 | 8.91652 | 2004 ft | 171 kts | 253° |
| 2026-05-07 15:33 | 52.81024 | 8.89780 | 2005 ft | 172 kts | 253° |
| 2026-05-07 15:33 | 52.80682 | 8.87883 | 2009 ft | 172 kts | 252° |
| 2026-05-07 15:34 | 52.80335 | 8.85983 | 2007 ft | 172 kts | 252° |
| 2026-05-07 15:34 | 52.79995 | 8.84117 | 2008 ft | 171 kts | 253° |
| 2026-05-07 15:34 | 52.79654 | 8.82221 | 2006 ft | 171 kts | 252° |
| 2026-05-07 15:34 | 52.79317 | 8.80339 | 2004 ft | 172 kts | 252° |
| 2026-05-07 15:35 | 52.78977 | 8.78435 | 2004 ft | 172 kts | 252° |
| 2026-05-07 15:35 | 52.78645 | 8.76568 | 2010 ft | 172 kts | 252° |
| 2026-05-07 15:35 | 52.78305 | 8.74675 | 2007 ft | 171 kts | 252° |
| 2026-05-07 15:35 | 52.77965 | 8.72787 | 2018 ft | 171 kts | 252° |
| 2026-05-07 15:36 | 52.77626 | 8.70899 | 2014 ft | 172 kts | 252° |
| 2026-05-07 15:36 | 52.77290 | 8.69026 | 2011 ft | 172 kts | 252° |
| 2026-05-07 15:36 | 52.76948 | 8.67129 | 2018 ft | 171 kts | 252° |
| 2026-05-07 15:36 | 52.76604 | 8.65235 | 2021 ft | 171 kts | 252° |
| 2026-05-07 15:37 | 52.76265 | 8.63369 | 2023 ft | 172 kts | 252° |
| 2026-05-07 15:37 | 52.75922 | 8.61465 | 2021 ft | 172 kts | 252° |
| 2026-05-07 15:37 | 52.75583 | 8.59577 | 2025 ft | 173 kts | 253° |
| 2026-05-07 15:37 | 52.75245 | 8.57676 | 2020 ft | 172 kts | 252° |
| 2026-05-07 15:38 | 52.74903 | 8.55780 | 2030 ft | 171 kts | 252° |
| 2026-05-07 15:38 | 52.74565 | 8.53908 | 2024 ft | 172 kts | 252° |
| 2026-05-07 15:38 | 52.74223 | 8.52007 | 2030 ft | 172 kts | 252° |
| 2026-05-07 15:38 | 52.73879 | 8.50108 | 2027 ft | 172 kts | 252° |
| 2026-05-07 15:39 | 52.73542 | 8.48229 | 2026 ft | 172 kts | 252° |
| 2026-05-07 15:39 | 52.73194 | 8.46331 | 2029 ft | 172 kts | 252° |
| 2026-05-07 15:39 | 52.72852 | 8.44463 | 2034 ft | 172 kts | 252° |
| 2026-05-07 15:39 | 52.72508 | 8.42556 | 2035 ft | 172 kts | 253° |
| 2026-05-07 15:40 | 52.72167 | 8.40652 | 2031 ft | 173 kts | 253° |
| 2026-05-07 15:40 | 52.71822 | 8.38750 | 2031 ft | 173 kts | 252° |
| 2026-05-07 15:40 | 52.71483 | 8.36876 | 2027 ft | 172 kts | 253° |
| 2026-05-07 15:40 | 52.71139 | 8.34982 | 2025 ft | 172 kts | 252° |
| 2026-05-07 15:41 | 52.70795 | 8.33098 | 2029 ft | 171 kts | 252° |
| 2026-05-07 15:41 | 52.70450 | 8.31203 | 2029 ft | 171 kts | 252° |
| 2026-05-07 15:41 | 52.70115 | 8.29337 | 2030 ft | 172 kts | 251° |
| 2026-05-07 15:41 | 52.69768 | 8.27445 | 2027 ft | 172 kts | 252° |
| 2026-05-07 15:42 | 52.69427 | 8.25562 | 2031 ft | 171 kts | 252° |
| 2026-05-07 15:42 | 52.69093 | 8.23688 | 2031 ft | 172 kts | 252° |
| 2026-05-07 15:42 | 52.68750 | 8.21793 | 2033 ft | 173 kts | 252° |
| 2026-05-07 15:42 | 52.68402 | 8.19874 | 2035 ft | 173 kts | 253° |
| 2026-05-07 15:43 | 52.68026 | 8.18008 | 2031 ft | 173 kts | 242° |
| 2026-05-07 15:43 | 52.67362 | 8.16350 | 2033 ft | 172 kts | 233° |
| 2026-05-07 15:43 | 52.66678 | 8.14719 | 2029 ft | 173 kts | 234° |
| 2026-05-07 15:43 | 52.66000 | 8.13100 | 2029 ft | 172 kts | 233° |
| 2026-05-07 15:44 | 52.65313 | 8.11470 | 2029 ft | 172 kts | 233° |
| 2026-05-07 15:44 | 52.64638 | 8.09863 | 2029 ft | 171 kts | 233° |
| 2026-05-07 15:44 | 52.63961 | 8.08254 | 2024 ft | 170 kts | 234° |
| 2026-05-07 15:44 | 52.63298 | 8.06664 | 2024 ft | 170 kts | 233° |
| 2026-05-07 15:45 | 52.62621 | 8.05042 | 2026 ft | 172 kts | 233° |
| 2026-05-07 15:45 | 52.61955 | 8.03430 | 2027 ft | 172 kts | 234° |
| 2026-05-07 15:45 | 52.61275 | 8.01801 | 2030 ft | 172 kts | 233° |
| 2026-05-07 15:45 | 52.60591 | 8.00167 | 2031 ft | 172 kts | 233° |
| 2026-05-07 15:46 | 52.59233 | 7.96916 | 2025 ft | 174 kts | 233° |
| 2026-05-07 15:46 | 52.58545 | 7.95279 | 2026 ft | 173 kts | 233° |
| 2026-05-07 15:46 | 52.57868 | 7.93668 | 2033 ft | 172 kts | 233° |
| 2026-05-07 15:47 | 52.57182 | 7.92030 | 2023 ft | 173 kts | 234° |
| 2026-05-07 15:47 | 52.56506 | 7.90398 | 2028 ft | 172 kts | 233° |
| 2026-05-07 15:47 | 52.55821 | 7.88777 | 2027 ft | 174 kts | 233° |
| 2026-05-07 15:47 | 52.55132 | 7.87138 | 2023 ft | 174 kts | 233° |
| 2026-05-07 15:48 | 52.54443 | 7.85496 | 2015 ft | 173 kts | 233° |
| 2026-05-07 15:48 | 52.53758 | 7.83886 | 2016 ft | 173 kts | 233° |
| 2026-05-07 15:48 | 52.53075 | 7.82272 | 2017 ft | 173 kts | 233° |
| 2026-05-07 15:48 | 52.52392 | 7.80648 | 2021 ft | 174 kts | 233° |
| 2026-05-07 15:49 | 52.51699 | 7.79005 | 2013 ft | 173 kts | 233° |
| 2026-05-07 15:49 | 52.51025 | 7.77396 | 2008 ft | 173 kts | 234° |
| 2026-05-07 15:49 | 52.50341 | 7.75763 | 2013 ft | 173 kts | 233° |
| 2026-05-07 15:49 | 52.49644 | 7.74126 | 2018 ft | 175 kts | 233° |
| 2026-05-07 15:50 | 52.48946 | 7.72474 | 2011 ft | 174 kts | 234° |
| 2026-05-07 15:50 | 52.48268 | 7.70854 | 2008 ft | 173 kts | 233° |
| 2026-05-07 15:50 | 52.47588 | 7.69227 | 2006 ft | 172 kts | 234° |
| 2026-05-07 15:50 | 52.46915 | 7.67637 | 2004 ft | 170 kts | 233° |
| 2026-05-07 15:51 | 52.46238 | 7.66019 | 2014 ft | 173 kts | 234° |
| 2026-05-07 15:51 | 52.45566 | 7.64417 | 2003 ft | 172 kts | 234° |
| 2026-05-07 15:51 | 52.44880 | 7.62796 | 2010 ft | 172 kts | 233° |
| 2026-05-07 15:51 | 52.44205 | 7.61202 | 2000 ft | 172 kts | 233° |
| 2026-05-07 15:52 | 52.43528 | 7.59585 | 2002 ft | 171 kts | 233° |
| 2026-05-07 15:52 | 52.42850 | 7.57975 | 2008 ft | 171 kts | 233° |
| 2026-05-07 15:52 | 52.42179 | 7.56382 | 2000 ft | 172 kts | 234° |
| 2026-05-07 15:52 | 52.41500 | 7.54755 | 2006 ft | 172 kts | 234° |
| 2026-05-07 15:53 | 52.40820 | 7.53151 | 2002 ft | 173 kts | 233° |
| 2026-05-07 15:53 | 52.40136 | 7.51528 | 2003 ft | 173 kts | 234° |
| 2026-05-07 15:53 | 52.39451 | 7.49894 | 2009 ft | 174 kts | 234° |
| 2026-05-07 15:53 | 52.38768 | 7.48262 | 2000 ft | 175 kts | 234° |
| 2026-05-07 15:54 | 52.38319 | 7.47177 | 1997 ft | 173 kts | 235° |
| 2026-05-07 15:54 | 52.37642 | 7.45561 | 2001 ft | 170 kts | 234° |
| 2026-05-07 15:54 | 52.36751 | 7.43445 | 1999 ft | 168 kts | 233° |
| 2026-05-07 15:54 | 52.36244 | 7.42478 | 1997 ft | 168 kts | 224° |
| 2026-05-07 15:55 | 52.35416 | 7.41094 | 2000 ft | 169 kts | 224° |
| 2026-05-07 15:55 | 52.34608 | 7.39728 | 2000 ft | 168 kts | 224° |
| 2026-05-07 15:55 | 52.33779 | 7.38331 | 2002 ft | 171 kts | 224° |
| 2026-05-07 15:55 | 52.32962 | 7.36948 | 2002 ft | 170 kts | 224° |
| 2026-05-07 15:56 | 52.32129 | 7.35538 | 2004 ft | 172 kts | 224° |
| 2026-05-07 15:56 | 52.31303 | 7.34136 | 1996 ft | 173 kts | 225° |
| 2026-05-07 15:56 | 52.30475 | 7.32729 | 2000 ft | 171 kts | 224° |
| 2026-05-07 15:56 | 52.29640 | 7.31324 | 2010 ft | 171 kts | 224° |
| 2026-05-07 15:57 | 52.28804 | 7.29913 | 2004 ft | 172 kts | 225° |
| 2026-05-07 15:57 | 52.27977 | 7.28524 | 2012 ft | 172 kts | 224° |
| 2026-05-07 15:57 | 52.27142 | 7.27122 | 2009 ft | 171 kts | 224° |
| 2026-05-07 15:57 | 52.26307 | 7.25717 | 1999 ft | 171 kts | 224° |
| 2026-05-07 15:58 | 52.25487 | 7.24325 | 1999 ft | 171 kts | 224° |
| 2026-05-07 15:58 | 52.24670 | 7.22948 | 1995 ft | 170 kts | 223° |
| 2026-05-07 15:58 | 52.23837 | 7.21552 | 1994 ft | 171 kts | 224° |
| 2026-05-07 15:58 | 52.23016 | 7.20170 | 1994 ft | 171 kts | 224° |
| 2026-05-07 15:59 | 52.22184 | 7.18772 | 1994 ft | 170 kts | 225° |
| 2026-05-07 15:59 | 52.21368 | 7.17401 | 1992 ft | 171 kts | 224° |
| 2026-05-07 15:59 | 52.20537 | 7.15994 | 1987 ft | 171 kts | 225° |
| 2026-05-07 15:59 | 52.19707 | 7.14601 | 1984 ft | 171 kts | 224° |
| 2026-05-07 16:00 | 52.18880 | 7.13212 | 1985 ft | 170 kts | 224° |
| 2026-05-07 16:00 | 52.18059 | 7.11835 | 1918 ft | 171 kts | 225° |
| 2026-05-07 16:00 | 52.17226 | 7.10420 | 1800 ft | 171 kts | 225° |
| 2026-05-07 16:00 | 52.16426 | 7.09058 | 1666 ft | 163 kts | 225° |
| 2026-05-07 16:01 | 52.15645 | 7.07741 | 1522 ft | 159 kts | 225° |
| 2026-05-07 16:01 | 52.14882 | 7.06452 | 1390 ft | 158 kts | 225° |
| 2026-05-07 16:01 | 52.14118 | 7.05165 | 1262 ft | 163 kts | 224° |
| 2026-05-07 16:01 | 52.13290 | 7.03804 | 1194 ft | 169 kts | 224° |
| 2026-05-07 16:02 | 52.12475 | 7.02430 | 1190 ft | 170 kts | 224° |
| 2026-05-07 16:02 | 52.11650 | 7.01034 | 1190 ft | 173 kts | 225° |
| 2026-05-07 16:02 | 52.10809 | 6.99609 | 1186 ft | 174 kts | 225° |
| 2026-05-07 16:02 | 52.09972 | 6.98191 | 1186 ft | 174 kts | 224° |
| 2026-05-07 16:03 | 52.09123 | 6.96776 | 1192 ft | 175 kts | 225° |
| 2026-05-07 16:03 | 52.08297 | 6.95367 | 1180 ft | 171 kts | 225° |
| 2026-05-07 16:03 | 52.07492 | 6.93995 | 1172 ft | 162 kts | 226° |
| 2026-05-07 16:03 | 52.06738 | 6.92707 | 1172 ft | 156 kts | 225° |
| 2026-05-07 16:04 | 52.06001 | 6.91444 | 1176 ft | 151 kts | 226° |
| 2026-05-07 16:04 | 52.05311 | 6.90238 | 1171 ft | 142 kts | 227° |
| 2026-05-07 16:04 | 52.04652 | 6.89143 | 1221 ft | 132 kts | 223° |
| 2026-05-07 16:04 | 52.03975 | 6.88130 | 1173 ft | 126 kts | 223° |
| 2026-05-07 16:05 | 52.03466 | 6.87103 | 1238 ft | 109 kts | 233° |
| 2026-05-07 16:05 | 52.03022 | 6.86105 | 1183 ft | 107 kts | 231° |
| 2026-05-07 16:05 | 52.02605 | 6.85193 | 1236 ft | 91 kts | 234° |
| 2026-05-07 16:05 | 52.02287 | 6.84328 | 1121 ft | 92 kts | 242° |
| 2026-05-07 16:06 | 52.01985 | 6.83389 | 947 ft | 95 kts | 239° |
| 2026-05-07 16:06 | 52.01679 | 6.82486 | 873 ft | 90 kts | 242° |
| 2026-05-07 16:06 | 52.01347 | 6.81638 | 784 ft | 92 kts | 236° |
| 2026-05-07 16:06 | 52.00932 | 6.80880 | 669 ft | 88 kts | 208° |
| 2026-05-07 16:07 | 52.00373 | 6.80713 | 607 ft | 81 kts | 150° |
| 2026-05-07 16:07 | 52.00088 | 6.81406 | 479 ft | 72 kts | 111° |
| 2026-05-07 16:07 | 51.99926 | 6.82156 | 364 ft | 68 kts | 105° |
| 2026-05-07 16:07 | 51.99783 | 6.82881 | 243 ft | 69 kts | 103° |
| 2026-05-07 16:08 | 51.99664 | 6.83593 | 163 ft | 57 kts | 102° |
| 2026-05-07 16:08 | 51.99574 | 6.84120 | 160 ft | 42 kts | 107° |
| 2026-05-07 16:08 | 51.99512 | 6.84445 | 161 ft | 16 kts | 101° |
| 2026-05-07 16:08 | 51.99562 | 6.84586 | 160 ft | 14 kts | 44° |
| 2026-05-07 16:09 | 51.99592 | 6.84684 | 160 ft | 4 kts | 93° |
| 2026-05-07 16:09 | 51.99589 | 6.84711 | 160 ft | 0 kts | 104° |